Time;durP1;ratioP1;P1;durP2;ratioP2;P2;SDS_P1;SDS_P2;PMS_P1;PMS_P2;Temp;Humidity;BMP_temperature;BMP_pressure;BME280_temperature;BME280_humidity;BME280_pressure;Samples;Min_cycle;Max_cycle;Signal;HPM_P1;HPM_P2
2022/06/19 00:10:29;;;;;;;5.95;1.00;;;17.10;68.20;;;;;;2109184;28;20036;-94
2022/06/19 00:17:16;;;;;;;4.85;1.02;;;17.10;68.10;;;;;;2116416;28;20042;-92
2022/06/19 00:21:40;;;;;;;5.03;1.20;;;17.00;68.20;;;;;;2116547;28;20040;-92
2022/06/19 00:24:59;;;;;;;7.40;1.55;;;17.00;68.20;;;;;;2084114;28;20041;-93
2022/06/19 00:36:01;;;;;;;5.60;1.20;;;16.90;68.50;;;;;;2081505;28;20030;-92
2022/06/19 00:37:59;;;;;;;4.10;0.90;;;16.90;68.60;;;;;;2052864;28;20597;-93
2022/06/19 01:05:30;;;;;;;5.43;1.17;;;16.70;69.00;;;;;;2115378;28;20055;-93
2022/06/19 01:07:05;;;;;;;4.47;0.90;;;16.70;69.00;;;;;;2099076;28;20473;-93
2022/06/19 01:10:55;;;;;;;5.30;1.15;;;16.60;69.20;;;;;;2095200;28;20024;-91
2022/06/19 01:12:17;;;;;;;5.05;1.17;;;16.60;69.20;;;;;;2108278;28;20043;-93
2022/06/19 01:13:38;;;;;;;6.07;1.10;;;16.60;69.30;;;;;;2096666;28;20040;-92
2022/06/19 01:15:03;;;;;;;8.30;1.30;;;16.50;69.30;;;;;;2096014;28;20040;-92
2022/06/19 01:16:24;;;;;;;6.00;1.23;;;16.50;69.50;;;;;;2105094;28;20040;-94
2022/06/19 01:17:46;;;;;;;7.93;1.25;;;16.50;69.50;;;;;;2087672;28;20029;-92
2022/06/19 01:19:09;;;;;;;5.80;1.25;;;16.50;69.60;;;;;;2098049;28;20059;-91
2022/06/19 01:20:29;;;;;;;6.07;1.00;;;16.40;69.70;;;;;;2096727;28;20036;-93
2022/06/19 01:21:51;;;;;;;8.13;1.40;;;16.40;69.70;;;;;;2096088;28;20041;-92
2022/06/19 01:23:44;;;;;;;6.32;1.38;;;16.40;69.70;;;;;;2103125;28;20119;-92
2022/06/19 01:25:14;;;;;;;6.43;1.33;;;16.40;69.70;;;;;;2115596;28;20027;-92
2022/06/19 01:26:39;;;;;;;4.93;1.10;;;16.40;69.60;;;;;;2115912;28;20043;-94
2022/06/19 01:29:44;;;;;;;6.45;1.25;;;16.40;69.50;;;;;;2107868;28;20036;-93
2022/06/19 01:31:05;;;;;;;3.50;1.10;;;16.40;69.40;;;;;;2087835;28;20134;-94
2022/06/19 01:32:24;;;;;;;7.32;1.27;;;16.40;69.30;;;;;;2100137;28;20068;-95
2022/06/19 01:33:59;;;;;;;7.07;1.23;;;16.40;69.20;;;;;;2089908;28;20037;-93
2022/06/19 01:35:21;;;;;;;6.75;1.23;;;16.50;69.20;;;;;;2097427;28;20055;-92
2022/06/19 01:36:40;;;;;;;7.32;1.00;;;16.50;69.00;;;;;;2109847;28;20028;-96
2022/06/19 01:38:04;;;;;;;6.03;1.10;;;16.60;68.90;;;;;;2102489;28;20130;-93
2022/06/19 01:39:26;;;;;;;5.07;1.02;;;16.60;68.70;;;;;;2111467;28;20028;-93
2022/06/19 01:40:51;;;;;;;5.90;1.27;;;16.60;68.50;;;;;;2098694;28;20036;-92
2022/06/19 01:42:11;;;;;;;4.60;0.98;;;16.60;68.40;;;;;;2104895;28;20048;-92
2022/06/19 01:43:30;;;;;;;6.45;1.20;;;16.60;68.10;;;;;;2089969;28;20028;-93
2022/06/19 01:44:53;;;;;;;5.47;1.02;;;16.60;68.00;;;;;;2087311;28;20041;-92
2022/06/19 01:46:14;;;;;;;3.38;0.90;;;16.50;67.80;;;;;;2089222;28;20100;-92
2022/06/19 01:47:35;;;;;;;5.03;0.95;;;16.50;67.70;;;;;;2096087;28;20132;-92
2022/06/19 01:48:56;;;;;;;5.63;1.00;;;16.50;67.60;;;;;;2105072;28;20032;-92
2022/06/19 01:50:20;;;;;;;5.22;1.08;;;16.50;67.40;;;;;;2102662;28;20040;-91
2022/06/19 01:51:39;;;;;;;4.97;1.25;;;16.50;67.10;;;;;;2104644;28;20028;-93
2022/06/19 01:53:11;;;;;;;5.07;0.98;;;16.50;67.60;;;;;;2106168;28;20040;-93
2022/06/19 01:54:41;;;;;;;3.53;0.80;;;16.50;66.90;;;;;;2097619;28;20037;-92
2022/06/19 01:56:06;;;;;;;3.13;0.90;;;16.50;66.60;;;;;;2105463;28;20032;-92
2022/06/19 01:57:27;;;;;;;7.03;1.05;;;16.50;66.50;;;;;;2098712;28;20040;-92
2022/06/19 01:58:48;;;;;;;;;;;16.50;66.10;;;;;;2089705;28;20052;-91
2022/06/19 02:00:12;;;;;;;4.63;0.80;;;16.50;66.10;;;;;;2100680;28;19994;-90
2022/06/19 02:01:34;;;;;;;4.20;0.90;;;16.40;65.80;;;;;;2104305;28;20490;-93
2022/06/19 02:03:06;;;;;;;5.57;1.10;;;16.40;66.30;;;;;;2096201;28;20060;-92
2022/06/19 02:04:25;;;;;;;3.20;0.80;;;16.40;65.50;;;;;;2103116;28;20028;-94
2022/06/19 02:05:45;;;;;;;3.88;0.90;;;16.40;65.50;;;;;;2093555;28;20056;-92
2022/06/19 02:07:08;;;;;;;2.78;0.82;;;16.40;65.40;;;;;;2095878;28;20099;-93
2022/06/19 02:08:30;;;;;;;4.90;0.98;;;16.40;65.20;;;;;;2091833;28;20037;-92
2022/06/19 02:09:52;;;;;;;4.97;0.90;;;16.50;65.10;;;;;;2089577;28;20025;-95
2022/06/19 02:11:11;;;;;;;4.00;0.75;;;16.50;64.80;;;;;;2077171;28;20045;-93
2022/06/19 02:12:32;;;;;;;4.03;0.98;;;16.50;64.60;;;;;;2085659;28;20116;-95
2022/06/19 02:13:53;;;;;;;3.00;0.95;;;16.50;65.10;;;;;;2090577;28;20064;-93
2022/06/19 02:15:13;;;;;;;;;;;16.50;64.30;;;;;;2088524;28;20053;-93
2022/06/19 02:16:37;;;;;;;4.68;0.90;;;16.40;64.20;;;;;;2092981;28;19913;-93
2022/06/19 02:17:56;;;;;;;4.80;1.00;;;16.40;64.10;;;;;;2103343;28;20037;-94
2022/06/19 02:19:17;;;;;;;4.05;0.70;;;16.40;64.20;;;;;;2093686;28;20037;-93
2022/06/19 02:20:36;;;;;;;;;;;16.40;64.00;;;;;;2073636;28;20046;-94
2022/06/19 02:21:56;;;;;;;4.05;0.73;;;16.40;64.00;;;;;;2087825;28;19912;-92
2022/06/19 02:23:18;;;;;;;5.10;0.90;;;16.40;63.90;;;;;;2077759;28;20081;-92
2022/06/19 02:24:39;;;;;;;4.25;0.80;;;16.40;63.70;;;;;;2077487;28;20038;-90
2022/06/19 02:26:00;;;;;;;3.80;0.98;;;16.40;63.70;;;;;;2087567;28;20040;-96
2022/06/19 02:27:19;;;;;;;4.47;0.80;;;16.40;63.60;;;;;;2074273;28;20050;-92
2022/06/19 02:28:46;;;;;;;3.10;0.70;;;16.30;63.60;;;;;;2071007;28;20125;-93
2022/06/19 02:30:10;;;;;;;3.78;0.80;;;16.30;63.60;;;;;;2089512;28;20020;-93
2022/06/19 02:31:32;;;;;;;4.07;0.75;;;16.30;63.60;;;;;;2090282;28;20049;-92
2022/06/19 02:32:52;;;;;;;3.97;0.90;;;16.30;63.60;;;;;;2087339;28;20021;-94
2022/06/19 02:34:23;;;;;;;4.88;0.90;;;16.30;63.70;;;;;;2081085;28;20048;-92
2022/06/19 02:35:42;;;;;;;4.32;0.80;;;16.30;63.80;;;;;;2086517;28;20033;-94
2022/06/19 02:37:17;;;;;;;4.53;0.93;;;16.30;63.90;;;;;;2085693;28;20407;-94
2022/06/19 02:38:36;;;;;;;6.30;1.20;;;16.30;64.00;;;;;;2090910;28;20430;-95
2022/06/19 02:39:59;;;;;;;3.20;0.88;;;16.30;64.10;;;;;;2071872;28;20038;-94
2022/06/19 02:41:24;;;;;;;4.85;0.90;;;16.20;64.20;;;;;;2098966;28;20047;-94
2022/06/19 02:42:47;;;;;;;3.40;0.75;;;16.20;64.40;;;;;;2113580;28;20028;-93
2022/06/19 02:44:06;;;;;;;4.07;0.90;;;16.20;64.50;;;;;;2101471;28;20363;-93
2022/06/19 02:45:29;;;;;;;3.90;0.77;;;16.20;64.60;;;;;;2090117;28;20037;-94
2022/06/19 02:46:48;;;;;;;5.25;1.05;;;16.20;64.70;;;;;;2092749;28;20124;-93
2022/06/19 02:48:21;;;;;;;3.88;0.80;;;16.20;64.90;;;;;;2087070;28;20041;-92
2022/06/19 02:49:40;;;;;;;3.40;0.70;;;16.20;64.90;;;;;;2095505;28;20029;-93
2022/06/19 02:51:01;;;;;;;4.40;0.75;;;16.20;65.00;;;;;;2088534;28;20045;-95
2022/06/19 02:52:21;;;;;;;2.90;0.73;;;16.20;65.00;;;;;;2085945;28;20028;-94
2022/06/19 02:53:40;;;;;;;4.57;0.82;;;16.20;65.10;;;;;;2071546;28;20042;-95
2022/06/19 02:55:00;;;;;;;4.65;0.90;;;16.20;65.10;;;;;;2080757;28;20041;-96
2022/06/19 02:56:20;;;;;;;5.45;1.00;;;16.20;65.20;;;;;;2081982;28;20419;-94
2022/06/19 02:57:39;;;;;;;4.35;0.85;;;16.20;65.40;;;;;;2079105;28;20049;-94
2022/06/19 02:58:58;;;;;;;5.03;0.95;;;16.20;65.50;;;;;;2089728;28;20526;-93
2022/06/19 03:00:21;;;;;;;3.97;0.85;;;16.10;65.40;;;;;;2091377;28;20033;-95
2022/06/19 03:01:40;;;;;;;4.40;0.90;;;16.20;65.60;;;;;;2092955;28;20111;-96
2022/06/19 03:03:31;;;;;;;2.78;0.70;;;16.20;65.60;;;;;;2085763;28;20049;-95
2022/06/19 03:04:56;;;;;;;4.07;0.75;;;16.20;65.60;;;;;;2091748;28;20032;-95
2022/06/19 03:06:15;;;;;;;4.53;0.68;;;16.20;65.60;;;;;;2103723;28;20052;-94
2022/06/19 03:07:34;;;;;;;3.78;0.88;;;16.20;65.60;;;;;;2086519;28;20476;-93
2022/06/19 03:08:53;;;;;;;3.60;0.75;;;16.20;65.60;;;;;;2100147;28;20032;-93
2022/06/19 03:10:13;;;;;;;4.55;0.82;;;16.20;65.70;;;;;;2089712;28;20045;-93
2022/06/19 03:11:32;;;;;;;3.67;0.73;;;16.20;65.80;;;;;;2088790;28;20037;-94
2022/06/19 03:12:52;;;;;;;2.72;0.70;;;16.10;65.80;;;;;;2095062;28;20037;-93
2022/06/19 03:14:11;;;;;;;4.72;1.00;;;16.10;65.90;;;;;;2094886;28;20033;-93
2022/06/19 03:15:30;;;;;;;3.88;0.98;;;16.10;66.00;;;;;;2082406;28;20053;-94
2022/06/19 03:16:51;;;;;;;5.15;0.95;;;16.00;66.00;;;;;;2085141;28;20119;-92
2022/06/19 03:18:10;;;;;;;4.40;1.15;;;16.00;66.20;;;;;;2084943;28;20486;-93
2022/06/19 03:19:29;;;;;;;5.90;0.80;;;16.00;66.80;;;;;;2085197;28;20041;-94
2022/06/19 03:20:49;;;;;;;3.25;1.00;;;16.00;66.20;;;;;;2093326;28;20040;-94
2022/06/19 03:22:09;;;;;;;3.33;0.70;;;15.90;66.20;;;;;;2094366;28;20060;-94
2022/06/19 03:23:28;;;;;;;4.20;0.90;;;15.90;66.20;;;;;;2084729;28;20040;-95
2022/06/19 03:24:48;;;;;;;3.30;0.82;;;16.00;66.30;;;;;;2089455;28;20037;-94
2022/06/19 03:26:08;;;;;;;2.72;0.93;;;16.00;66.30;;;;;;2115471;27;20039;-94
2022/06/19 03:27:27;;;;;;;3.67;0.70;;;16.00;66.20;;;;;;2091713;28;20053;-94
2022/06/19 03:28:47;;;;;;;4.20;0.70;;;16.00;66.10;;;;;;2077292;28;20243;-94
2022/06/19 03:30:07;;;;;;;2.90;0.52;;;16.00;66.00;;;;;;2090349;28;20119;-93
2022/06/19 03:31:28;;;;;;;2.20;0.73;;;16.00;66.00;;;;;;2095137;28;20036;-96
2022/06/19 03:32:48;;;;;;;2.88;0.57;;;15.90;65.80;;;;;;2104850;28;20039;-93
2022/06/19 03:34:07;;;;;;;4.43;0.73;;;15.90;65.80;;;;;;2085754;28;22142;-93
2022/06/19 03:35:27;;;;;;;2.47;0.70;;;15.90;65.80;;;;;;2093399;28;20040;-94
2022/06/19 03:36:46;;;;;;;2.92;0.60;;;15.90;65.80;;;;;;2080880;28;20046;-95
2022/06/19 03:38:05;;;;;;;3.78;0.70;;;15.90;65.80;;;;;;2077367;28;20041;-93
2022/06/19 03:39:24;;;;;;;3.72;0.90;;;15.90;65.80;;;;;;2093216;28;20036;-93
2022/06/19 03:40:44;;;;;;;2.58;0.68;;;15.80;65.80;;;;;;2088016;28;20044;-94
2022/06/19 03:42:04;;;;;;;4.43;0.80;;;15.80;65.90;;;;;;2088795;28;20048;-92
2022/06/19 03:43:23;;;;;;;4.80;0.70;;;15.80;66.00;;;;;;2101514;28;20044;-93
2022/06/19 03:44:42;;;;;;;3.63;0.68;;;15.80;66.10;;;;;;2095543;28;20036;-93
2022/06/19 03:46:12;;;;;;;3.20;0.60;;;15.80;66.20;;;;;;2101618;28;20040;-93
2022/06/19 03:47:32;;;;;;;3.90;0.90;;;15.80;66.40;;;;;;2104136;28;20028;-92
2022/06/19 03:48:51;;;;;;;3.58;0.90;;;15.80;66.50;;;;;;2093541;28;20036;-93
2022/06/19 03:50:16;;;;;;;3.70;0.90;;;15.70;66.60;;;;;;2096640;28;20068;-94
2022/06/19 03:51:36;;;;;;;4.50;0.80;;;15.70;66.70;;;;;;2097400;28;20053;-93
2022/06/19 03:52:55;;;;;;;4.53;0.70;;;15.70;66.80;;;;;;2089675;28;20515;-94
2022/06/19 03:54:14;;;;;;;5.32;1.00;;;15.70;67.00;;;;;;2081879;28;20481;-92
2022/06/19 03:55:35;;;;;;;3.15;0.82;;;15.70;67.10;;;;;;2077183;28;20065;-94
2022/06/19 03:56:54;;;;;;;4.43;0.70;;;15.70;67.10;;;;;;2085650;28;20049;-93
2022/06/19 03:58:14;;;;;;;4.90;0.90;;;15.70;67.30;;;;;;2088587;28;20052;-94
2022/06/19 03:59:33;;;;;;;4.53;0.80;;;15.70;67.50;;;;;;2091568;28;20033;-93
2022/06/19 04:00:52;;;;;;;3.90;0.77;;;15.70;67.40;;;;;;2082681;28;20037;-92
2022/06/19 04:02:12;;;;;;;2.85;0.80;;;15.70;67.60;;;;;;2082977;28;20063;-93
2022/06/19 04:03:31;;;;;;;4.97;1.00;;;15.70;67.60;;;;;;2091530;28;20049;-92
2022/06/19 04:04:51;;;;;;;5.03;0.95;;;15.70;67.80;;;;;;2094127;28;20546;-94
2022/06/19 04:06:12;;;;;;;4.80;1.38;;;15.70;67.90;;;;;;2089823;28;20056;-92
2022/06/19 04:07:32;;;;;;;3.33;0.80;;;15.70;67.80;;;;;;2103762;28;20028;-93
2022/06/19 04:08:52;;;;;;;3.78;0.80;;;15.70;67.80;;;;;;2099864;28;20049;-95
2022/06/19 04:10:12;;;;;;;5.00;0.90;;;15.70;67.90;;;;;;2095053;28;20033;-93
2022/06/19 04:11:32;;;;;;;3.47;0.70;;;15.70;67.90;;;;;;2095806;28;20037;-94
2022/06/19 04:12:52;;;;;;;3.03;0.60;;;15.70;68.00;;;;;;2097226;28;20041;-93
2022/06/19 04:14:12;;;;;;;4.68;0.80;;;15.70;68.00;;;;;;2104801;28;20739;-95
2022/06/19 04:15:35;;;;;;;6.18;1.00;;;15.70;68.00;;;;;;2104082;28;20036;-93
2022/06/19 04:16:54;;;;;;;5.40;0.80;;;15.70;68.10;;;;;;2087675;28;20056;-93
2022/06/19 04:18:13;;;;;;;6.03;0.90;;;15.70;68.60;;;;;;2092416;28;20116;-94
2022/06/19 04:19:33;;;;;;;4.60;0.95;;;15.70;68.00;;;;;;2096142;28;20070;-93
2022/06/19 04:20:52;;;;;;;3.97;0.60;;;15.80;68.10;;;;;;2097090;28;20107;-94
2022/06/19 04:22:12;;;;;;;4.13;0.90;;;15.80;68.20;;;;;;2096482;28;20066;-94
2022/06/19 04:23:31;;;;;;;3.88;0.77;;;15.80;68.20;;;;;;2088026;28;20029;-93
2022/06/19 04:24:51;;;;;;;3.70;0.80;;;15.80;68.20;;;;;;2087939;28;20124;-94
2022/06/19 04:26:15;;;;;;;3.40;0.80;;;15.80;68.20;;;;;;2088441;28;20033;-95
2022/06/19 04:27:37;;;;;;;4.40;0.70;;;15.80;68.20;;;;;;2101287;28;20032;-94
2022/06/19 04:28:56;;;;;;;5.93;1.00;;;15.80;68.20;;;;;;2095100;28;20037;-94
2022/06/19 04:30:16;;;;;;;4.82;0.90;;;15.80;68.20;;;;;;2090604;28;20037;-94
2022/06/19 04:31:35;;;;;;;4.38;0.90;;;15.80;68.80;;;;;;2089758;28;20040;-96
2022/06/19 04:32:54;;;;;;;4.85;0.90;;;15.80;68.20;;;;;;2088199;28;20029;-94
2022/06/19 04:34:16;;;;;;;4.93;0.88;;;15.80;68.20;;;;;;2089735;28;20116;-95
2022/06/19 04:35:36;;;;;;;2.38;0.70;;;15.80;68.20;;;;;;2081350;28;20057;-93
2022/06/19 04:39:21;;;;;;;4.55;0.70;;;15.90;68.10;;;;;;2115702;28;20127;-94
2022/06/19 04:42:01;;;;;;;4.50;0.70;;;15.90;67.90;;;;;;2116613;28;20043;-93
2022/06/19 04:43:39;;;;;;;4.50;0.65;;;15.80;67.70;;;;;;2102761;28;20115;-93
2022/06/19 04:45:23;;;;;;;4.82;0.75;;;15.90;67.40;;;;;;2103607;28;20127;-93
2022/06/19 04:46:57;;;;;;;4.72;1.10;;;15.90;67.00;;;;;;2099151;28;20044;-93
2022/06/19 04:48:19;;;;;;;3.67;0.80;;;15.80;66.90;;;;;;2106594;28;20740;-93
2022/06/19 04:49:45;;;;;;;5.82;1.17;;;15.80;67.40;;;;;;2092481;28;20033;-94
2022/06/19 04:51:49;;;;;;;4.68;1.00;;;15.90;66.70;;;;;;2093479;28;20052;-94
2022/06/19 04:53:55;;;;;;;3.38;0.80;;;15.90;66.60;;;;;;2115361;28;20043;-94
2022/06/19 04:55:57;;;;;;;2.65;0.60;;;15.90;66.30;;;;;;2114978;28;20040;-94
2022/06/19 04:58:37;;;;;;;3.63;0.73;;;16.00;66.20;;;;;;2115208;28;20036;-93
2022/06/19 05:00:32;;;;;;;2.95;0.50;;;16.10;65.90;;;;;;2111547;28;20097;-93
2022/06/19 05:02:01;;;;;;;3.70;0.73;;;16.20;65.60;;;;;;2104995;28;20040;-93
2022/06/19 05:03:45;;;;;;;4.63;0.80;;;16.20;65.40;;;;;;2096798;28;20044;-92
2022/06/19 05:05:52;;;;;;;4.22;0.80;;;16.30;65.20;;;;;;2111167;28;20024;-94
2022/06/19 05:08:07;;;;;;;3.58;0.47;;;16.30;65.00;;;;;;2108897;28;20044;-92
2022/06/19 05:09:48;;;;;;;3.50;0.60;;;16.40;64.90;;;;;;2101702;28;20122;-94
2022/06/19 05:13:31;;;;;;;3.38;0.60;;;16.60;64.60;;;;;;2107772;28;20024;-94
2022/06/19 05:14:55;;;;;;;4.32;0.70;;;16.60;64.50;;;;;;2107091;28;20484;-93
2022/06/19 05:16:19;;;;;;;2.95;0.77;;;16.70;64.30;;;;;;2093778;28;20032;-92
2022/06/19 05:18:18;;;;;;;2.60;0.50;;;16.70;64.30;;;;;;2106612;28;20060;-94
2022/06/19 05:25:24;;;;;;;3.30;0.60;;;16.90;64.20;;;;;;2106033;28;20051;-94
2022/06/19 05:44:46;;;;;;;3.08;0.60;;;17.90;62.50;;;;;;2121043;27;20027;-93
2022/06/19 05:46:16;;;;;;;3.22;0.60;;;18.00;62.50;;;;;;2102420;28;20062;-95
2022/06/19 05:47:37;;;;;;;3.03;0.75;;;18.00;62.50;;;;;;2102089;28;20032;-94
2022/06/19 05:48:56;;;;;;;4.13;0.70;;;18.00;62.40;;;;;;2107849;27;20028;-94
2022/06/19 05:50:54;;;;;;;4.00;1.00;;;18.00;62.40;;;;;;2110395;28;20040;-95
2022/06/19 05:54:54;;;;;;;1.73;0.50;;;18.00;62.50;;;;;;2108940;27;20028;-93
2022/06/19 05:56:15;;;;;;;1.77;0.60;;;18.00;62.50;;;;;;2109241;28;20036;-93
2022/06/19 05:57:36;;;;;;;;;;;18.10;62.50;;;;;;2102632;28;20540;-92
2022/06/19 05:59:01;;;;;;;3.17;0.60;;;18.20;62.40;;;;;;2101148;28;19920;-95
2022/06/19 06:00:22;;;;;;;2.92;0.60;;;18.20;62.30;;;;;;2099859;28;20032;-92
2022/06/19 06:01:59;;;;;;;2.33;0.50;;;18.30;62.10;;;;;;2106985;28;20052;-91
2022/06/19 06:03:59;;;;;;;2.10;0.40;;;18.20;61.90;;;;;;2099090;28;20040;-94
2022/06/19 06:06:27;;;;;;;2.47;0.57;;;18.20;61.80;;;;;;2114726;28;20024;-94
2022/06/19 06:10:03;;;;;;;3.38;0.60;;;18.20;61.60;;;;;;2107161;28;20523;-94
2022/06/19 06:12:18;;;;;;;3.33;0.68;;;18.20;61.50;;;;;;2097934;28;20040;-93
2022/06/19 06:14:23;;;;;;;2.60;0.60;;;18.30;61.30;;;;;;2095577;28;20040;-92
2022/06/19 06:15:56;;;;;;;2.13;0.50;;;18.30;60.90;;;;;;2095870;28;20032;-92
2022/06/19 06:18:10;;;;;;;2.63;0.55;;;18.40;60.70;;;;;;2087217;28;20049;-92
2022/06/19 06:36:41;;;;;;;2.40;0.50;;;18.70;58.50;;;;;;2112221;27;20059;-93
2022/06/19 06:38:02;;;;;;;3.35;0.40;;;18.60;58.60;;;;;;2109447;27;20048;-93
2022/06/19 06:39:24;;;;;;;2.15;0.50;;;18.50;58.60;;;;;;2110300;28;20048;-91
2022/06/19 06:40:43;;;;;;;3.03;0.50;;;18.40;58.50;;;;;;2093141;28;20111;-91
2022/06/19 06:42:32;;;;;;;2.17;0.30;;;18.30;58.70;;;;;;2089452;28;20433;-92
2022/06/19 06:43:54;;;;;;;1.88;0.47;;;18.20;58.60;;;;;;2109960;28;20036;-92
2022/06/19 06:45:14;;;;;;;2.03;0.43;;;18.10;58.90;;;;;;2094693;28;20036;-93
2022/06/19 06:46:33;;;;;;;1.30;0.50;;;18.10;59.00;;;;;;2106328;28;20036;-91
2022/06/19 06:47:52;;;;;;;0.90;0.30;;;18.10;59.00;;;;;;2108402;28;20063;-93
2022/06/19 06:49:12;;;;;;;2.78;0.60;;;18.00;58.90;;;;;;2094953;28;20040;-93
2022/06/19 06:50:31;;;;;;;1.55;0.40;;;18.00;58.90;;;;;;2098792;28;20044;-93
2022/06/19 06:51:50;;;;;;;1.88;0.45;;;18.00;59.20;;;;;;2095103;28;20134;-93
2022/06/19 06:53:11;;;;;;;2.90;0.70;;;17.90;59.40;;;;;;2093423;28;20052;-93
2022/06/19 06:54:30;;;;;;;1.20;0.40;;;17.90;59.90;;;;;;2101612;28;20040;-92
2022/06/19 06:55:49;;;;;;;2.13;0.40;;;17.80;60.10;;;;;;2101783;28;20572;-92
2022/06/19 06:57:09;;;;;;;2.65;0.60;;;17.80;60.50;;;;;;2091652;28;20029;-93
2022/06/19 06:58:28;;;;;;;2.88;0.63;;;17.70;60.70;;;;;;2087009;28;20037;-93
2022/06/19 07:04:59;;;;;;;2.08;0.40;;;17.40;62.00;;;;;;2080455;28;19972;-93
2022/06/19 07:37:23;;;;;;;2.28;0.50;;;15.00;73.70;;;;;;2121203;27;20471;-92
2022/06/19 07:38:42;;;;;;;2.33;0.60;;;15.00;73.70;;;;;;2098256;28;20045;-90
2022/06/19 07:40:02;;;;;;;6.35;0.90;;;15.00;74.20;;;;;;2109857;28;20048;-92
2022/06/19 07:41:22;;;;;;;3.60;0.70;;;15.10;74.60;;;;;;2107359;28;20032;-92
2022/06/19 07:42:42;;;;;;;3.78;0.80;;;15.10;74.90;;;;;;2099760;28;20040;-92
2022/06/19 07:44:01;;;;;;;3.17;0.70;;;15.10;75.90;;;;;;2092540;28;20120;-92
2022/06/19 07:45:21;;;;;;;3.10;0.70;;;15.20;75.70;;;;;;2089203;28;20064;-92
2022/06/19 07:50:09;;;;;;;2.95;0.60;;;15.20;75.90;;;;;;2104845;28;20024;-92
2022/06/19 07:50:10;;;;;;;4.95;0.85;;;15.20;76.50;;;;;;2106306;28;20040;-92
2022/06/19 07:51:30;;;;;;;4.68;1.02;;;15.20;76.80;;;;;;2098695;28;20141;-93
2022/06/19 07:52:51;;;;;;;4.35;0.70;;;15.20;77.20;;;;;;2111291;28;20140;-94
2022/06/19 07:54:10;;;;;;;5.38;0.98;;;15.20;77.70;;;;;;2110372;28;20044;-93
2022/06/19 07:55:31;;;;;;;2.95;0.50;;;15.20;78.10;;;;;;2116637;28;20047;-93
2022/06/19 07:56:50;;;;;;;5.25;1.20;;;15.20;78.60;;;;;;2100574;28;20041;-93
2022/06/19 07:58:10;;;;;;;4.60;0.95;;;15.20;78.90;;;;;;2097057;28;20124;-92
2022/06/19 07:59:29;;;;;;;3.50;0.73;;;15.20;79.20;;;;;;2094584;28;20052;-93
2022/06/19 08:00:48;;;;;;;5.97;0.77;;;15.20;79.60;;;;;;2086735;28;20041;-94
2022/06/19 08:02:07;;;;;;;4.57;0.80;;;15.20;79.80;;;;;;2095086;28;20100;-93
2022/06/19 08:03:27;;;;;;;5.18;0.80;;;15.20;80.00;;;;;;2089836;28;20032;-94
2022/06/19 08:04:46;;;;;;;3.25;0.77;;;15.20;80.30;;;;;;2095931;28;20522;-93
2022/06/19 08:06:05;;;;;;;4.82;0.93;;;15.20;81.10;;;;;;2101078;28;20048;-94
2022/06/19 08:07:24;;;;;;;5.25;0.80;;;15.20;80.80;;;;;;2104769;28;20429;-93
2022/06/19 08:08:44;;;;;;;5.10;0.93;;;15.10;81.30;;;;;;2103158;28;20449;-94
2022/06/19 08:10:07;;;;;;;4.90;0.90;;;15.00;81.40;;;;;;2090310;28;20045;-94
2022/06/19 08:11:26;;;;;;;3.78;0.80;;;14.90;81.70;;;;;;2096145;28;20041;-95
2022/06/19 08:12:46;;;;;;;5.22;0.88;;;14.90;81.90;;;;;;2095274;28;20418;-94
2022/06/19 08:14:05;;;;;;;5.07;1.00;;;14.90;82.10;;;;;;2103212;28;20036;-93
2022/06/19 08:15:25;;;;;;;6.07;1.02;;;14.90;82.20;;;;;;2107369;28;20044;-95
2022/06/19 08:16:44;;;;;;;5.47;0.80;;;14.80;82.40;;;;;;2097591;28;20033;-95
2022/06/19 08:18:04;;;;;;;8.07;1.42;;;14.70;82.60;;;;;;2094171;28;20195;-96
2022/06/19 08:19:23;;;;;;;3.83;0.80;;;14.60;83.00;;;;;;2086698;28;20045;-96
2022/06/19 08:20:42;;;;;;;4.53;0.80;;;14.60;83.20;;;;;;2093223;28;20040;-96
2022/06/19 08:22:02;;;;;;;4.30;0.85;;;14.50;83.30;;;;;;2089084;28;20041;-96
2022/06/19 08:23:21;;;;;;;5.28;0.82;;;14.50;83.50;;;;;;2095257;28;20036;-96
2022/06/19 08:24:40;;;;;;;4.82;0.70;;;14.50;83.80;;;;;;2094897;28;20048;-96
2022/06/19 08:26:00;;;;;;;3.03;0.80;;;14.50;84.00;;;;;;2097677;28;20036;-96
2022/06/19 08:27:19;;;;;;;3.97;0.80;;;14.50;84.00;;;;;;2106417;28;20039;-96
2022/06/19 08:30:23;;;;;;;4.55;0.80;;;14.50;84.30;;;;;;2113902;27;20511;-96
2022/06/19 08:31:43;;;;;;;5.50;1.00;;;14.50;84.30;;;;;;2110578;28;20024;-96
2022/06/19 08:33:03;;;;;;;3.08;0.77;;;14.50;84.40;;;;;;2107619;28;20097;-96
2022/06/19 08:34:23;;;;;;;7.03;1.02;;;14.50;84.50;;;;;;2112790;28;20114;-94
2022/06/19 08:35:47;;;;;;;5.80;1.00;;;14.50;84.50;;;;;;2114464;28;20039;-94
2022/06/19 08:37:09;;;;;;;7.95;0.95;;;14.50;85.20;;;;;;2112936;28;20036;-96
2022/06/19 08:38:37;;;;;;;5.38;0.98;;;14.50;84.80;;;;;;2113611;27;20099;-96
2022/06/19 08:39:56;;;;;;;5.55;1.08;;;14.40;85.00;;;;;;2111435;28;20059;-96
2022/06/19 08:41:45;;;;;;;4.43;0.90;;;14.40;85.10;;;;;;2106118;28;20500;-96
2022/06/19 08:43:46;;;;;;;3.15;0.68;;;14.50;85.30;;;;;;2119785;28;20031;-96
2022/06/19 08:45:33;;;;;;;6.90;0.82;;;14.60;85.00;;;;;;2116409;28;20027;-96
2022/06/19 08:46:55;;;;;;;4.28;0.90;;;14.70;84.70;;;;;;2118878;28;20019;-96
2022/06/19 08:48:32;;;;;;;3.25;0.80;;;14.70;84.70;;;;;;2114564;28;20020;-96
2022/06/19 08:50:03;;;;;;;3.58;0.80;;;14.70;84.80;;;;;;2117916;28;20008;-96
2022/06/19 08:51:35;;;;;;;4.90;1.00;;;14.70;85.00;;;;;;2122731;28;20027;-96
2022/06/19 08:53:08;;;;;;;5.35;0.73;;;14.70;85.00;;;;;;2121748;28;20044;-96
2022/06/19 08:54:56;;;;;;;4.82;1.00;;;14.70;84.90;;;;;;2114709;28;20032;-96
2022/06/19 08:56:40;;;;;;;4.15;0.70;;;14.70;85.00;;;;;;2114398;28;20032;-96
2022/06/19 08:58:05;;;;;;;4.32;0.90;;;14.70;85.10;;;;;;2115834;28;20056;-96
2022/06/19 08:59:39;;;;;;;2.88;0.80;;;14.70;85.30;;;;;;2116801;28;20039;-96
2022/06/19 09:01:08;;;;;;;3.33;0.70;;;14.70;85.40;;;;;;2111969;28;20036;-96
2022/06/19 09:02:36;;;;;;;3.40;0.90;;;14.70;85.50;;;;;;2123540;27;20039;-96
2022/06/19 09:06:22;;;;;;;6.07;0.98;;;14.80;85.40;;;;;;2121310;28;20027;-96
2022/06/19 09:08:05;;;;;;;4.15;0.98;;;14.80;85.50;;;;;;2111761;28;20099;-95
2022/06/19 09:10:14;;;;;;;6.00;1.08;;;14.70;85.50;;;;;;2126449;27;20397;-96
2022/06/19 09:12:09;;;;;;;3.47;0.68;;;14.80;85.50;;;;;;2102617;28;20020;-96
2022/06/19 09:13:47;;;;;;;3.42;0.77;;;14.80;85.30;;;;;;2114725;28;20492;-96
2022/06/19 09:15:09;;;;;;;4.22;0.70;;;14.90;85.20;;;;;;2116978;28;20035;-96
2022/06/19 09:16:46;;;;;;;4.18;0.88;;;14.90;85.30;;;;;;2109798;28;20028;-96
2022/06/19 09:18:24;;;;;;;5.22;0.77;;;14.90;85.30;;;;;;2109256;28;20126;-96
2022/06/19 09:19:43;;;;;;;4.30;0.90;;;14.90;85.30;;;;;;2108600;28;20058;-96
2022/06/19 09:21:11;;;;;;;4.20;1.00;;;15.00;85.30;;;;;;2122293;27;20039;-96
2022/06/19 09:22:59;;;;;;;4.95;1.10;;;15.00;85.40;;;;;;2117622;28;20043;-96
2022/06/19 09:24:40;;;;;;;4.30;0.70;;;15.20;85.30;;;;;;2115994;28;20036;-94
2022/06/19 09:26:08;;;;;;;3.65;0.88;;;15.30;85.00;;;;;;2115675;28;20044;-96
2022/06/19 09:27:58;;;;;;;3.25;0.73;;;15.40;84.80;;;;;;2107734;28;20040;-94
2022/06/19 09:29:34;;;;;;;4.03;0.88;;;15.50;84.70;;;;;;2112188;28;20035;-94
2022/06/19 09:31:00;;;;;;;5.10;1.00;;;15.70;84.50;;;;;;2111006;28;20110;-93
2022/06/19 09:32:37;;;;;;;4.15;1.00;;;15.80;84.10;;;;;;2105433;28;20040;-93
2022/06/19 09:34:14;;;;;;;2.20;0.70;;;15.80;83.80;;;;;;2108366;28;20028;-92
2022/06/19 09:35:39;;;;;;;2.40;0.75;;;15.90;83.60;;;;;;2108010;28;20048;-92
2022/06/19 09:37:39;;;;;;;4.32;1.02;;;16.00;83.50;;;;;;2114171;28;20521;-93
2022/06/19 09:39:20;;;;;;;6.35;1.00;;;16.10;83.20;;;;;;2125436;27;20043;-93
2022/06/19 09:40:43;;;;;;;4.47;0.85;;;16.20;82.90;;;;;;2116553;27;20036;-93
2022/06/19 09:42:15;;;;;;;5.95;1.15;;;16.30;82.60;;;;;;2111601;28;20076;-94
2022/06/19 09:43:47;;;;;;;3.92;0.60;;;16.30;82.50;;;;;;2114499;28;20028;-94
2022/06/19 09:45:22;;;;;;;4.70;1.15;;;16.40;82.60;;;;;;2114343;28;20119;-91
2022/06/19 09:46:53;;;;;;;2.90;0.70;;;16.40;82.30;;;;;;2115547;27;20039;-94
2022/06/19 09:48:36;;;;;;;3.70;0.80;;;16.50;82.10;;;;;;2113199;28;20051;-95
2022/06/19 09:50:04;;;;;;;3.63;0.90;;;16.60;81.90;;;;;;2110268;28;20119;-94
2022/06/19 09:51:33;;;;;;;3.00;0.82;;;16.70;81.40;;;;;;2117131;27;20027;-92
2022/06/19 09:53:05;;;;;;;2.40;0.60;;;16.80;80.90;;;;;;2112998;28;20082;-95
2022/06/19 09:55:05;;;;;;;2.45;0.80;;;16.90;80.30;;;;;;2105789;28;20094;-93
2022/06/19 09:56:52;;;;;;;2.22;0.77;;;17.00;79.80;;;;;;2070720;28;20038;-93
2022/06/19 09:58:36;;;;;;;3.58;0.70;;;17.00;79.90;;;;;;2111241;28;20035;-93
2022/06/19 10:00:05;;;;;;;2.05;0.65;;;17.00;79.70;;;;;;2113241;28;20053;-93
2022/06/19 10:01:25;;;;;;;3.20;0.57;;;17.00;79.60;;;;;;2110367;28;20036;-94
2022/06/19 10:02:58;;;;;;;2.58;0.50;;;17.00;79.50;;;;;;2103541;28;20122;-92
2022/06/19 10:04:27;;;;;;;4.45;0.65;;;17.10;79.10;;;;;;2104116;28;20115;-89
2022/06/19 10:05:52;;;;;;;2.80;0.63;;;17.20;78.80;;;;;;2105556;28;20054;-90